Terminal Aerodrome Forecast
Issued by NWS Brownsville, TX

Home | Current Version | Previous Version | Text Only | Print | Product List | Glossary On
Versions: 1 2 3 4 5 6 7 8 9 10 11 12 13 14 15 16 17 18 19
276
FTUS44 KBRO 290106 AAA
TAFBRO
TAF AMD
KBRO 290106Z 2901/2924 15017G25KT P6SM BKN018
     FM290400 16015KT P6SM SCT018 WS020/17045KT
      TEMPO 2904/2907 BKN020
     FM291400 18016G22KT P6SM FEW025
     FM291800 20012KT P6SM FEW030
     FM292100 13010KT P6SM FEW025=

USA.gov is the U.S. government's official web portal to all federal, state and local government web resources and services.